createdAt,value
2019-02-19T00:01:36.300Z,17.33
2019-02-19T00:04:04.109Z,17.42
2019-02-19T00:06:31.929Z,16.77
2019-02-19T00:08:59.771Z,17.35
2019-02-19T00:11:27.744Z,16.07
2019-02-19T00:13:55.568Z,16.60
2019-02-19T00:16:23.383Z,15.63
2019-02-19T00:18:51.225Z,16.32
2019-02-19T00:21:19.009Z,14.98
2019-02-19T00:23:46.849Z,16.35
2019-02-19T00:26:17.160Z,16.23
2019-02-19T00:28:45.023Z,14.15
2019-02-19T00:31:12.852Z,13.15
2019-02-19T00:33:40.671Z,12.85
2019-02-19T00:36:08.483Z,11.55
2019-02-19T00:38:36.249Z,12.30
2019-02-19T00:41:04.121Z,12.03
2019-02-19T00:43:32.383Z,12.30
2019-02-19T00:46:00.218Z,12.40
2019-02-19T00:48:28.126Z,12.88
2019-02-19T00:51:15.368Z,12.82
2019-02-19T00:53:43.161Z,11.83
2019-02-19T00:56:10.979Z,12.73
2019-02-19T00:58:38.790Z,12.03
2019-02-19T01:01:06.590Z,12.43
2019-02-19T01:03:34.441Z,11.73
2019-02-19T01:06:04.256Z,12.25
2019-02-19T01:08:32.113Z,12.20
2019-02-19T01:10:59.901Z,12.37
2019-02-19T01:13:27.737Z,12.23
2019-02-19T01:15:55.709Z,12.63
2019-02-19T01:18:23.496Z,12.65
2019-02-19T01:20:51.296Z,13.72
2019-02-19T01:23:19.116Z,12.85
2019-02-19T01:25:46.933Z,14.13
2019-02-19T01:28:14.754Z,12.45
2019-02-19T01:30:47.781Z,13.72
2019-02-19T01:33:15.632Z,13.20
2019-02-19T01:35:43.460Z,13.15
2019-02-19T01:38:11.259Z,12.45
2019-02-19T01:40:39.148Z,12.90
2019-02-19T01:43:06.995Z,12.93
2019-02-19T01:45:47.101Z,13.08
2019-02-19T01:48:14.906Z,12.75
2019-02-19T01:50:42.703Z,12.95
2019-02-19T01:53:10.490Z,11.78
2019-02-19T01:55:38.256Z,12.60
2019-02-19T01:58:06.110Z,12.82
2019-02-19T02:00:33.932Z,12.90
2019-02-19T02:03:01.706Z,12.07
2019-02-19T02:05:29.519Z,12.30
2019-02-19T02:07:57.362Z,11.90
2019-02-19T02:10:25.199Z,11.97
2019-02-19T02:12:53.009Z,12.05
2019-02-19T02:15:20.787Z,12.70
2019-02-19T02:17:48.561Z,12.45
2019-02-19T02:20:16.630Z,11.53
2019-02-19T02:22:44.496Z,11.70
2019-02-19T02:25:12.271Z,11.48
2019-02-19T02:27:40.017Z,12.43
2019-02-19T02:30:08.161Z,11.93
2019-02-19T02:32:35.982Z,12.45
2019-02-19T02:35:03.924Z,11.73
2019-02-19T02:37:31.756Z,12.73
2019-02-19T02:39:59.604Z,12.50
2019-02-19T02:42:27.439Z,13.30
2019-02-19T02:44:55.238Z,13.58
2019-02-19T02:47:23.091Z,13.68
2019-02-19T02:49:51.012Z,13.18
2019-02-19T02:52:18.875Z,11.70
2019-02-19T02:54:46.634Z,11.20
2019-02-19T02:57:14.488Z,11.88
2019-02-19T02:59:42.308Z,11.60
2019-02-19T03:02:10.150Z,11.50
2019-02-19T03:04:37.948Z,11.57
2019-02-19T03:07:23.996Z,12.13
2019-02-19T03:09:51.958Z,11.43
2019-02-19T03:12:19.785Z,12.35
2019-02-19T03:14:47.584Z,13.55
2019-02-19T03:17:15.516Z,11.90
2019-02-19T03:19:53.386Z,11.33
2019-02-19T03:22:21.195Z,11.55
2019-02-19T03:24:49.026Z,12.65
2019-02-19T03:27:16.827Z,12.37
2019-02-19T03:29:44.727Z,13.30
2019-02-19T03:32:12.505Z,15.60
2019-02-19T03:34:40.341Z,18.53
2019-02-19T03:37:08.112Z,14.07
2019-02-19T03:39:36.195Z,14.07
2019-02-19T03:42:03.999Z,15.27
2019-02-19T03:44:31.812Z,14.40
2019-02-19T03:46:59.611Z,14.28
2019-02-19T03:50:03.349Z,14.97
2019-02-19T03:52:31.170Z,15.20
2019-02-19T03:54:58.954Z,15.43
2019-02-19T03:57:26.777Z,14.03
2019-02-19T03:59:54.571Z,15.25
2019-02-19T04:02:22.463Z,17.10
2019-02-19T04:04:50.305Z,14.83
2019-02-19T04:07:18.091Z,15.13
2019-02-19T04:09:45.960Z,17.03
2019-02-19T04:12:13.740Z,20.57
2019-02-19T04:14:41.553Z,18.65
2019-02-19T04:17:09.339Z,17.63
2019-02-19T04:19:37.167Z,17.98
2019-02-19T04:22:04.976Z,18.92
2019-02-19T04:24:32.807Z,18.60
2019-02-19T04:27:00.636Z,18.48
2019-02-19T04:29:28.434Z,17.70
2019-02-19T04:31:56.226Z,16.10
2019-02-19T04:34:24.032Z,18.17
2019-02-19T04:36:51.826Z,17.23
2019-02-19T04:39:19.624Z,17.85
2019-02-19T04:41:47.432Z,17.55
2019-02-19T04:44:15.227Z,16.17
2019-02-19T04:46:43.068Z,17.60
2019-02-19T04:49:26.072Z,18.00
2019-02-19T04:51:53.895Z,16.00
2019-02-19T04:54:41.131Z,18.10
2019-02-19T04:57:08.934Z,15.78
2019-02-19T04:59:36.791Z,15.97
2019-02-19T05:02:04.578Z,16.25
2019-02-19T05:04:32.392Z,17.00
2019-02-19T05:07:00.202Z,16.73
2019-02-19T05:09:28.431Z,17.37
2019-02-19T05:11:56.231Z,51.73
2019-02-19T05:14:24.029Z,22.37
2019-02-19T05:16:51.923Z,21.05
2019-02-19T05:19:24.754Z,17.10
2019-02-19T05:21:52.582Z,18.12
2019-02-19T05:24:20.360Z,19.15
2019-02-19T05:26:48.220Z,17.90
2019-02-19T05:29:20.997Z,13.75
2019-02-19T05:31:48.826Z,19.48
2019-02-19T05:34:36.061Z,20.68
2019-02-19T05:37:03.819Z,18.92
2019-02-19T05:39:31.720Z,15.98
2019-02-19T05:41:59.575Z,15.60
2019-02-19T05:44:27.453Z,15.63
2019-02-19T05:46:55.264Z,15.95
2019-02-19T05:49:23.216Z,14.50
2019-02-19T05:51:51.034Z,16.02
2019-02-19T05:54:18.950Z,16.45
2019-02-19T05:56:46.791Z,18.37
2019-02-19T05:59:14.620Z,15.65
2019-02-19T06:01:42.465Z,17.30
2019-02-19T06:04:10.296Z,19.98
2019-02-19T06:06:38.150Z,21.80
2019-02-19T06:09:05.981Z,19.15
2019-02-19T06:11:33.763Z,21.68
2019-02-19T06:14:21.029Z,19.82
2019-02-19T06:16:58.103Z,17.87
2019-02-19T06:19:39.692Z,15.32
2019-02-19T06:22:07.545Z,15.30
2019-02-19T06:24:35.378Z,14.75
2019-02-19T06:27:17.148Z,15.85
2019-02-19T06:29:45.352Z,13.75
2019-02-19T06:32:13.165Z,16.00
2019-02-19T06:34:41.356Z,14.50
2019-02-19T06:37:09.129Z,13.48
2019-02-19T06:39:37.045Z,13.58
2019-02-19T06:42:04.854Z,14.05
2019-02-19T06:44:32.696Z,14.20
2019-02-19T06:47:06.670Z,14.80
2019-02-19T06:49:49.952Z,15.40
2019-02-19T06:52:17.733Z,13.73
2019-02-19T06:54:45.554Z,14.28
2019-02-19T06:57:13.367Z,20.73
2019-02-19T06:59:41.212Z,14.07
2019-02-19T07:02:24.719Z,16.27
2019-02-19T07:04:55.768Z,18.17
2019-02-19T07:07:23.601Z,15.50
2019-02-19T07:09:56.662Z,15.67
2019-02-19T07:12:24.491Z,17.37
2019-02-19T07:14:52.313Z,13.90
2019-02-19T07:17:20.123Z,13.37
2019-02-19T07:19:47.992Z,13.57
2019-02-19T07:22:15.752Z,15.40
2019-02-19T07:24:43.590Z,16.07
2019-02-19T07:27:11.443Z,16.00
2019-02-19T07:29:39.370Z,19.63
2019-02-19T07:32:07.199Z,19.00
2019-02-19T07:34:35.096Z,15.03
2019-02-19T07:37:02.913Z,15.73
2019-02-19T07:39:30.757Z,17.53
2019-02-19T07:41:58.515Z,16.50
2019-02-19T07:44:26.350Z,21.03
2019-02-19T07:46:54.180Z,18.83
2019-02-19T07:49:23.173Z,18.17
2019-02-19T07:51:51.249Z,17.50
2019-02-19T07:54:19.028Z,17.77
2019-02-19T07:56:46.834Z,15.77
2019-02-19T07:59:14.607Z,16.60
2019-02-19T08:01:42.411Z,16.80
2019-02-19T08:04:10.219Z,17.33
2019-02-19T08:06:38.007Z,16.90
2019-02-19T08:09:11.652Z,15.20
2019-02-19T08:11:39.944Z,15.53
2019-02-19T08:14:09.024Z,15.80
2019-02-19T08:16:39.777Z,14.70
2019-02-19T08:19:08.271Z,14.57
2019-02-19T08:21:36.061Z,14.60
2019-02-19T08:24:07.210Z,13.53
2019-02-19T08:26:35.027Z,14.70
2019-02-19T08:29:13.030Z,14.47
2019-02-19T08:31:32.542Z,11.63
2019-02-19T08:34:00.364Z,12.13
2019-02-19T08:36:29.703Z,12.50
2019-02-19T08:38:57.800Z,12.93
2019-02-19T08:41:25.652Z,12.73
2019-02-19T08:43:53.518Z,10.80
2019-02-19T08:46:21.301Z,11.63
2019-02-19T08:48:49.145Z,13.00
2019-02-19T08:51:16.942Z,13.73
2019-02-19T08:53:44.713Z,13.93
2019-02-19T08:56:12.627Z,12.87
2019-02-19T08:58:40.448Z,12.77
2019-02-19T09:01:13.434Z,11.67
2019-02-19T09:03:41.237Z,12.83
2019-02-19T09:06:28.875Z,11.80
2019-02-19T09:08:56.666Z,12.27
2019-02-19T09:11:24.478Z,12.33
2019-02-19T09:13:52.297Z,12.10
2019-02-19T09:16:20.093Z,12.60
2019-02-19T09:18:47.928Z,12.13
2019-02-19T09:21:16.595Z,13.00
2019-02-19T09:23:44.434Z,21.40
2019-02-19T09:26:12.260Z,16.33
2019-02-19T09:28:40.099Z,19.07
2019-02-19T09:31:07.913Z,16.50
2019-02-19T09:33:35.762Z,15.57
2019-02-19T09:36:03.664Z,18.33
2019-02-19T09:38:31.516Z,21.97
2019-02-19T09:40:59.286Z,20.17
2019-02-19T09:43:35.127Z,18.60
2019-02-19T09:45:58.889Z,19.77
2019-02-19T09:48:26.547Z,21.20
2019-02-19T09:50:55.449Z,20.33
2019-02-19T09:53:23.309Z,20.20
2019-02-19T09:55:51.282Z,21.73
2019-02-19T09:58:19.137Z,18.23
2019-02-19T10:00:46.927Z,16.97
2019-02-19T10:03:15.484Z,18.00
2019-02-19T10:05:43.302Z,17.03
2019-02-19T10:08:11.156Z,18.50
2019-02-19T10:10:38.937Z,19.77
2019-02-19T10:13:06.696Z,21.80
2019-02-19T10:15:34.476Z,19.43
2019-02-19T10:18:09.970Z,19.67
2019-02-19T10:20:37.225Z,17.03
2019-02-19T10:23:05.001Z,18.47
2019-02-19T10:25:32.870Z,18.23
2019-02-19T10:28:00.679Z,18.67
2019-02-19T10:30:28.472Z,21.57
2019-02-19T10:32:56.317Z,19.77
2019-02-19T10:35:24.579Z,21.37
2019-02-19T10:37:52.509Z,15.57
2019-02-19T10:40:30.383Z,15.40
2019-02-19T10:42:58.288Z,14.90
2019-02-19T10:45:26.202Z,14.47
2019-02-19T10:47:54.057Z,15.40
2019-02-19T10:50:23.664Z,15.20
2019-02-19T10:52:53.159Z,15.23
2019-02-19T10:55:23.519Z,17.53
2019-02-19T10:57:54.082Z,16.53
2019-02-19T11:00:23.029Z,14.93
2019-02-19T11:02:50.832Z,18.17
2019-02-19T11:05:18.713Z,15.70
2019-02-19T11:07:46.582Z,14.33
2019-02-19T11:10:45.098Z,14.37
2019-02-19T11:13:12.926Z,13.83
2019-02-19T11:15:40.743Z,16.00
2019-02-19T11:18:08.624Z,14.43
2019-02-19T11:20:36.416Z,18.37
2019-02-19T11:23:04.199Z,18.40
2019-02-19T11:25:32.048Z,16.00
2019-02-19T11:27:59.912Z,16.40
2019-02-19T11:30:58.257Z,16.43
2019-02-19T11:33:26.031Z,24.13
2019-02-19T11:35:54.861Z,20.80
2019-02-19T11:38:22.998Z,18.17
2019-02-19T11:41:31.186Z,16.87
2019-02-19T11:43:59.014Z,20.87
2019-02-19T11:46:26.914Z,21.43
2019-02-19T11:48:56.191Z,18.63
2019-02-19T11:51:24.344Z,17.23
2019-02-19T11:53:52.194Z,14.73
2019-02-19T11:56:20.004Z,16.53
2019-02-19T11:58:47.791Z,15.77
2019-02-19T12:01:15.638Z,14.87
2019-02-19T12:03:43.448Z,15.50
2019-02-19T12:06:32.774Z,14.87
2019-02-19T12:09:55.555Z,15.70
2019-02-19T12:12:23.383Z,14.87
2019-02-19T12:14:51.192Z,14.27
2019-02-19T12:17:18.970Z,14.60
2019-02-19T12:19:46.748Z,13.23
2019-02-19T12:22:15.785Z,13.13
2019-02-19T12:24:43.609Z,13.67
2019-02-19T12:27:11.467Z,16.00
2019-02-19T12:29:39.245Z,18.80
2019-02-19T12:32:09.883Z,17.73
2019-02-19T12:34:37.689Z,18.20
2019-02-19T12:37:08.640Z,18.13
2019-02-19T12:39:36.475Z,18.90
2019-02-19T12:42:04.322Z,19.40
2019-02-19T12:44:32.100Z,19.70
2019-02-19T12:46:59.936Z,17.83
2019-02-19T12:49:27.872Z,19.17
2019-02-19T12:51:55.737Z,19.70
2019-02-19T12:54:23.570Z,20.37
2019-02-19T12:56:51.378Z,21.20
2019-02-19T12:59:19.203Z,20.70
2019-02-19T13:01:46.999Z,21.33
2019-02-19T13:04:14.875Z,25.20
2019-02-19T13:06:42.673Z,22.23
2019-02-19T13:09:11.054Z,22.90
2019-02-19T13:11:38.812Z,24.30
2019-02-19T13:14:06.692Z,25.70
2019-02-19T13:16:34.533Z,22.37
2019-02-19T13:19:03.744Z,20.10
2019-02-19T13:21:33.501Z,18.40
2019-02-19T13:24:01.373Z,17.83
2019-02-19T13:26:29.238Z,16.50
2019-02-19T13:28:57.062Z,16.20
2019-02-19T13:31:24.889Z,14.97
2019-02-19T13:33:52.688Z,13.13
2019-02-19T13:36:20.561Z,14.30
2019-02-19T13:38:48.349Z,13.13
2019-02-19T13:41:21.435Z,13.83
2019-02-19T13:43:49.213Z,11.17
2019-02-19T13:46:17.082Z,11.07
2019-02-19T13:48:44.883Z,11.93
2019-02-19T13:51:12.735Z,12.87
2019-02-19T13:53:46.876Z,12.17
2019-02-19T13:56:14.670Z,12.50
2019-02-19T13:58:42.455Z,11.90
2019-02-19T14:01:25.403Z,12.23
2019-02-19T14:03:53.223Z,10.27
2019-02-19T14:06:21.001Z,10.03
2019-02-19T14:08:48.783Z,4.97
2019-02-19T14:11:16.592Z,5.40
2019-02-19T14:13:51.803Z,4.17
2019-02-19T14:16:24.318Z,4.53
2019-02-19T14:18:53.688Z,6.10
2019-02-19T14:21:38.933Z,4.47
2019-02-19T14:24:44.276Z,4.53
2019-02-19T14:27:34.778Z,4.33
2019-02-19T14:30:40.073Z,4.63
2019-02-19T14:33:26.054Z,3.90
2019-02-19T14:36:22.571Z,5.43
2019-02-19T14:39:08.535Z,4.00
2019-02-19T14:41:58.423Z,4.80
2019-02-19T14:44:40.383Z,4.37
2019-02-19T14:47:26.314Z,5.13
2019-02-19T14:50:20.012Z,5.63
2019-02-19T14:53:16.239Z,5.53
2019-02-19T14:56:09.452Z,4.97
2019-02-19T14:59:02.597Z,6.33
2019-02-19T15:01:49.994Z,7.20
2019-02-19T15:04:39.874Z,6.03
2019-02-19T15:07:18.222Z,5.97
2019-02-19T15:10:08.586Z,6.97
2019-02-19T15:12:48.544Z,8.23
2019-02-19T15:15:34.304Z,5.17
2019-02-19T15:18:20.208Z,5.37
2019-02-19T15:20:56.719Z,4.40
2019-02-19T15:23:33.574Z,8.47
2019-02-19T15:26:08.369Z,4.93
2019-02-19T15:32:00.286Z,6.40
2019-02-19T15:34:56.832Z,6.33
2019-02-19T15:37:44.401Z,8.63
2019-02-19T15:40:36.763Z,6.83
2019-02-19T15:43:24.152Z,5.10
2019-02-19T15:46:10.568Z,4.93
2019-02-19T15:48:58.355Z,6.60
2019-02-19T15:51:38.470Z,6.13
2019-02-19T15:54:19.634Z,4.80
2019-02-19T15:57:06.593Z,5.83
2019-02-19T16:00:00.102Z,6.77
2019-02-19T16:02:47.661Z,5.57
2019-02-19T16:05:31.775Z,5.40
2019-02-19T16:08:11.908Z,5.47
2019-02-19T16:11:06.695Z,4.97
2019-02-19T16:13:42.021Z,4.63
2019-02-19T16:16:28.037Z,4.60
2019-02-19T16:19:06.794Z,4.40
2019-02-19T16:21:56.733Z,3.57
2019-02-19T16:24:59.372Z,3.93
2019-02-19T16:27:39.872Z,4.37
2019-02-19T16:30:48.116Z,4.30
2019-02-19T16:33:53.828Z,4.40
2019-02-19T16:36:44.046Z,4.43
2019-02-19T16:39:29.715Z,4.83
2019-02-19T16:42:14.770Z,4.47
2019-02-19T16:44:52.159Z,4.83
2019-02-19T16:47:36.270Z,9.87
2019-02-19T16:50:35.255Z,10.60
2019-02-19T16:53:25.591Z,7.50
2019-02-19T16:56:31.167Z,7.63
2019-02-19T16:59:16.959Z,6.60
2019-02-19T17:01:54.743Z,6.27
2019-02-19T17:04:42.126Z,6.30
2019-02-19T17:07:24.629Z,6.73
2019-02-19T17:10:04.433Z,13.33
2019-02-19T17:13:03.853Z,14.47
2019-02-19T17:15:51.222Z,9.57
2019-02-19T17:18:44.846Z,8.37
2019-02-19T17:21:23.563Z,7.60
2019-02-19T17:24:10.995Z,7.90
2019-02-19T17:27:04.673Z,6.60
2019-02-19T17:29:38.261Z,5.87
2019-02-19T17:32:31.713Z,6.80
2019-02-19T17:35:15.551Z,8.17
2019-02-19T17:37:52.471Z,8.17
2019-02-19T17:40:38.519Z,7.67
2019-02-19T17:43:32.918Z,7.73
2019-02-19T17:46:13.282Z,6.93
2019-02-19T17:48:59.567Z,10.20
2019-02-19T17:51:37.278Z,7.10
2019-02-19T17:54:30.524Z,7.93
2019-02-19T17:57:24.764Z,6.77
2019-02-19T18:00:21.340Z,7.10
2019-02-19T18:03:17.832Z,7.23
2019-02-19T18:05:56.193Z,8.30
2019-02-19T18:08:30.778Z,8.83
2019-02-19T18:11:20.961Z,9.23
2019-02-19T18:14:08.473Z,9.17
2019-02-19T18:16:43.411Z,14.47
2019-02-19T18:19:11.236Z,12.30
2019-02-19T18:21:39.045Z,13.17
2019-02-19T18:24:06.901Z,12.40
2019-02-19T18:26:34.684Z,14.47
2019-02-19T18:29:02.546Z,14.60
2019-02-19T18:31:32.247Z,15.70
2019-02-19T18:34:00.122Z,13.90
2019-02-19T18:36:27.910Z,14.10
2019-02-19T18:38:55.718Z,19.97
2019-02-19T18:41:23.549Z,20.43
2019-02-19T18:43:51.391Z,21.03
2019-02-19T18:46:19.286Z,26.80
2019-02-19T18:48:48.786Z,27.37
2019-02-19T18:51:16.768Z,35.67
2019-02-19T18:53:44.596Z,30.97
2019-02-19T18:56:12.475Z,24.77
2019-02-19T18:58:40.400Z,31.70
2019-02-19T19:01:08.677Z,31.20
2019-02-19T19:03:36.940Z,32.20
2019-02-19T19:06:04.756Z,27.03
2019-02-19T19:08:52.069Z,28.77
2019-02-19T19:11:20.594Z,27.43
2019-02-19T19:13:48.528Z,26.90
2019-02-19T19:16:19.559Z,19.27
2019-02-19T19:18:48.544Z,22.23
2019-02-19T19:21:16.329Z,19.60
2019-02-19T19:23:45.771Z,20.87
2019-02-19T19:26:13.687Z,23.77
2019-02-19T19:28:41.549Z,23.10
2019-02-19T19:31:09.629Z,20.40
2019-02-19T19:33:37.498Z,22.77
2019-02-19T19:36:05.311Z,20.57
2019-02-19T19:38:33.172Z,20.83
2019-02-19T19:41:02.052Z,20.53
2019-02-19T19:43:30.614Z,22.80
2019-02-19T19:45:58.478Z,22.07
2019-02-19T19:48:26.749Z,21.60
2019-02-19T19:50:55.330Z,25.33
2019-02-19T19:53:24.033Z,26.07
2019-02-19T19:55:52.441Z,23.20
2019-02-19T19:58:20.825Z,20.80
2019-02-19T20:00:52.831Z,18.57
2019-02-19T20:03:21.137Z,17.30
2019-02-19T20:05:49.786Z,20.27
2019-02-19T20:08:18.500Z,16.57
2019-02-19T20:10:49.030Z,16.77
2019-02-19T20:13:17.269Z,15.57
2019-02-19T20:15:45.683Z,15.50
2019-02-19T20:18:14.741Z,16.10
2019-02-19T20:20:43.862Z,15.53
2019-02-19T20:23:12.094Z,13.03
2019-02-19T20:25:40.291Z,13.83
2019-02-19T20:28:09.233Z,12.60
2019-02-19T20:30:42.928Z,13.77
2019-02-19T20:33:11.186Z,12.90
2019-02-19T20:35:39.630Z,14.07
2019-02-19T20:38:08.085Z,11.97
2019-02-19T20:40:41.537Z,11.33
2019-02-19T20:43:10.206Z,10.30
2019-02-19T20:45:38.360Z,10.37
2019-02-19T20:48:06.795Z,10.60
2019-02-19T20:50:35.008Z,11.40
2019-02-19T20:53:22.523Z,19.47
2019-02-19T20:55:50.701Z,21.60
2019-02-19T20:58:19.036Z,22.80
2019-02-19T21:00:47.298Z,18.90
2019-02-19T21:03:15.596Z,15.07
2019-02-19T21:05:44.005Z,11.87
2019-02-19T21:08:12.793Z,12.80
2019-02-19T21:10:41.180Z,12.40
2019-02-19T21:13:09.633Z,17.10
2019-02-19T21:15:37.962Z,16.77
2019-02-19T21:18:06.531Z,16.17
2019-02-19T21:20:34.826Z,13.73
2019-02-19T21:23:03.100Z,14.47
2019-02-19T21:25:31.520Z,13.90
2019-02-19T21:27:59.738Z,12.73
2019-02-19T21:30:33.403Z,11.63
2019-02-19T21:33:01.480Z,13.50
2019-02-19T21:35:29.809Z,12.30
2019-02-19T21:37:58.186Z,13.10
2019-02-19T21:40:26.445Z,14.43
2019-02-19T21:42:54.564Z,12.77
2019-02-19T21:45:22.874Z,15.03
2019-02-19T21:47:51.304Z,14.80
2019-02-19T21:50:20.364Z,17.40
2019-02-19T21:52:48.495Z,14.73
2019-02-19T21:55:16.671Z,15.77
2019-02-19T21:57:44.864Z,14.97
2019-02-19T22:00:23.381Z,14.83
2019-02-19T22:02:51.692Z,15.60
2019-02-19T22:05:19.837Z,18.23
2019-02-19T22:07:47.989Z,16.43
2019-02-19T22:10:31.557Z,14.10
2019-02-19T22:12:59.794Z,14.73
2019-02-19T22:15:28.023Z,13.07
2019-02-19T22:17:56.238Z,19.77
2019-02-19T22:20:39.798Z,18.10
2019-02-19T22:23:08.143Z,19.10
2019-02-19T22:25:36.451Z,20.63
2019-02-19T22:28:04.586Z,18.03
2019-02-19T22:30:37.161Z,17.17
2019-02-19T22:33:05.552Z,18.13
2019-02-19T22:35:33.899Z,15.10
2019-02-19T22:38:02.253Z,13.50
2019-02-19T22:40:55.260Z,18.23
2019-02-19T22:43:20.254Z,16.70
2019-02-19T22:45:48.093Z,19.23
2019-02-19T22:48:15.870Z,17.47
2019-02-19T22:50:43.723Z,18.37
2019-02-19T22:53:29.871Z,17.37
2019-02-19T22:56:03.769Z,15.20
2019-02-19T22:58:31.754Z,11.57
2019-02-19T23:01:10.231Z,11.97
2019-02-19T23:03:38.839Z,10.80
2019-02-19T23:06:07.384Z,10.37
2019-02-19T23:08:35.144Z,10.90
2019-02-19T23:11:03.009Z,11.17
2019-02-19T23:13:31.033Z,10.98
2019-02-19T23:15:58.900Z,11.10
2019-02-19T23:18:26.694Z,12.70
2019-02-19T23:20:54.522Z,11.90
2019-02-19T23:23:41.749Z,11.03
2019-02-19T23:26:09.581Z,10.15
2019-02-19T23:28:37.410Z,12.07
2019-02-19T23:31:05.369Z,12.53
2019-02-19T23:33:33.178Z,12.47
2019-02-19T23:36:12.318Z,13.10
2019-02-19T23:38:40.172Z,15.33
2019-02-19T23:41:13.063Z,14.10
2019-02-19T23:43:40.879Z,12.13
2019-02-19T23:46:08.718Z,12.13
2019-02-19T23:48:56.232Z,11.33
2019-02-19T23:51:24.085Z,10.93
2019-02-19T23:53:51.915Z,11.10
2019-02-19T23:56:19.747Z,9.85
2019-02-19T23:58:47.557Z,10.40
